Time;durP1;ratioP1;P1;durP2;ratioP2;P2;SDS_P1;SDS_P2;PMS_P1;PMS_P2;Temp;Humidity;BMP_temperature;BMP_pressure;BME280_temperature;BME280_humidity;BME280_pressure;Samples;Min_cycle;Max_cycle;Signal;HPM_P1;HPM_P2
2023/03/03 00:00:25;;;;;;;47.47;44.05;;;8.00;99.90;;;;;;5205437;28;20756;-66
2023/03/03 00:03:02;;;;;;;44.65;41.20;;;7.90;99.90;;;;;;5205000;28;20492;-67
2023/03/03 00:05:34;;;;;;;43.65;40.67;;;7.80;99.90;;;;;;5205614;28;20038;-66
2023/03/03 00:08:05;;;;;;;46.83;42.80;;;7.90;99.90;;;;;;5207397;28;20021;-66
2023/03/03 00:10:37;;;;;;;45.55;42.10;;;7.70;99.90;;;;;;5217520;28;20459;-66
2023/03/03 00:13:22;;;;;;;47.70;44.22;;;7.70;99.90;;;;;;5204752;28;20033;-66
2023/03/03 00:16:01;;;;;;;46.80;43.28;;;7.60;99.90;;;;;;5193869;28;20072;-65
2023/03/03 00:18:39;;;;;;;42.78;39.67;;;7.80;99.90;;;;;;5204888;28;20520;-66
2023/03/03 00:21:40;;;;;;;43.38;39.67;;;7.90;99.90;;;;;;5221139;28;20032;-66
2023/03/03 00:24:34;;;;;;;44.78;41.58;;;7.80;99.90;;;;;;5196575;28;20122;-66
2023/03/03 00:27:30;;;;;;;46.38;43.03;;;7.80;99.90;;;;;;5205439;28;20033;-66
2023/03/03 00:30:01;;;;;;;43.47;40.22;;;7.70;99.90;;;;;;5197849;28;20627;-66
2023/03/03 00:32:49;;;;;;;44.47;41.50;;;7.60;99.90;;;;;;5210480;28;20057;-66
2023/03/03 00:35:29;;;;;;;42.58;39.60;;;7.80;99.90;;;;;;5206508;28;20032;-66
2023/03/03 00:38:09;;;;;;;42.40;39.67;;;7.70;99.90;;;;;;5223219;28;20037;-66
2023/03/03 00:40:40;;;;;;;41.80;38.75;;;7.90;99.90;;;;;;5208703;28;20035;-66
2023/03/03 00:43:22;;;;;;;43.08;40.08;;;7.90;99.90;;;;;;5208506;28;20022;-65
2023/03/03 00:45:55;;;;;;;44.72;41.83;;;7.90;99.90;;;;;;5216778;28;20037;-66
2023/03/03 00:48:29;;;;;;;42.17;39.00;;;7.50;99.90;;;;;;5209937;28;20041;-66
2023/03/03 00:51:04;;;;;;;47.40;44.00;;;7.90;99.90;;;;;;5227644;28;20717;-66
2023/03/03 00:53:36;;;;;;;44.40;41.45;;;7.50;99.90;;;;;;5227235;28;20081;-65
2023/03/03 00:56:07;;;;;;;42.75;40.00;;;7.60;99.90;;;;;;5210922;28;20037;-66
2023/03/03 00:58:37;;;;;;;45.60;42.60;;;7.70;99.90;;;;;;5193589;28;20029;-64
2023/03/03 01:01:08;;;;;;;42.72;39.83;;;7.50;99.90;;;;;;5218474;28;20084;-67
2023/03/03 01:03:39;;;;;;;43.42;40.38;;;7.70;99.90;;;;;;5207018;28;20025;-66
2023/03/03 01:06:12;;;;;;;41.17;38.38;;;7.60;99.90;;;;;;5211558;28;20048;-66
2023/03/03 01:08:43;;;;;;;47.20;44.10;;;7.80;99.90;;;;;;5208581;28;20090;-66
2023/03/03 01:11:22;;;;;;;43.70;40.42;;;7.70;99.90;;;;;;5214736;28;20357;-66
2023/03/03 01:13:53;;;;;;;44.20;41.47;;;7.60;99.90;;;;;;5207146;28;20033;-65
2023/03/03 01:16:24;;;;;;;47.22;43.75;;;7.80;99.90;;;;;;5187777;28;20495;-66
2023/03/03 01:18:55;;;;;;;47.05;44.05;;;7.70;99.90;;;;;;5227608;28;20036;-66
2023/03/03 01:21:26;;;;;;;43.33;40.30;;;7.60;99.90;;;;;;5207468;28;20018;-67
2023/03/03 01:23:57;;;;;;;48.97;45.65;;;7.70;99.90;;;;;;5208790;28;20041;-66
2023/03/03 01:26:28;;;;;;;45.78;42.35;;;7.60;99.90;;;;;;5190200;28;20543;-66
2023/03/03 01:28:58;;;;;;;42.60;39.58;;;7.70;99.90;;;;;;5189947;28;20060;-65
2023/03/03 01:31:29;;;;;;;44.80;41.75;;;7.70;99.90;;;;;;5206377;28;20052;-66
2023/03/03 01:34:00;;;;;;;43.10;40.38;;;7.50;99.90;;;;;;5228267;28;20028;-66
2023/03/03 01:36:32;;;;;;;45.05;41.85;;;7.70;99.90;;;;;;5224225;28;20128;-66
2023/03/03 01:39:03;;;;;;;45.08;42.15;;;7.50;99.90;;;;;;5208185;28;20072;-66
2023/03/03 01:41:34;;;;;;;49.95;46.58;;;7.50;99.90;;;;;;5212366;28;20071;-65
2023/03/03 01:44:13;;;;;;;43.00;40.10;;;7.50;99.90;;;;;;5207445;28;20037;-66
2023/03/03 01:47:28;;;;;;;43.42;40.38;;;7.50;99.90;;;;;;5222948;28;20033;-66
2023/03/03 01:50:14;;;;;;;46.35;43.25;;;7.50;99.90;;;;;;5169589;28;20045;-66
2023/03/03 01:52:46;;;;;;;47.50;44.53;;;7.60;99.90;;;;;;5221935;28;20033;-65
2023/03/03 01:55:24;;;;;;;47.00;43.60;;;7.50;99.90;;;;;;5204433;28;20020;-65
2023/03/03 01:58:03;;;;;;;45.60;42.63;;;7.70;99.90;;;;;;5221647;28;20044;-65
2023/03/03 02:00:37;;;;;;;43.42;40.55;;;7.50;99.90;;;;;;5214341;28;20380;-65
2023/03/03 02:03:10;;;;;;;45.60;42.55;;;7.60;99.90;;;;;;5207685;28;20531;-65
2023/03/03 02:05:42;;;;;;;46.08;42.97;;;7.40;99.90;;;;;;5206764;28;20026;-65
2023/03/03 02:08:18;;;;;;;47.00;43.70;;;7.70;99.90;;;;;;5207348;28;20018;-66
2023/03/03 02:10:50;;;;;;;48.83;45.47;;;7.70;99.90;;;;;;5207605;28;20029;-65
2023/03/03 02:13:21;;;;;;;42.05;39.13;;;7.60;99.90;;;;;;5211572;28;20447;-65
2023/03/03 02:15:52;;;;;;;45.80;42.60;;;7.60;99.90;;;;;;5222215;28;20040;-66
2023/03/03 02:18:23;;;;;;;47.75;44.55;;;7.60;99.90;;;;;;5205064;28;20037;-65
2023/03/03 02:21:03;;;;;;;48.35;44.97;;;7.50;99.90;;;;;;5207153;28;20040;-65
2023/03/03 02:23:42;;;;;;;47.85;44.25;;;7.40;99.90;;;;;;5207195;28;20075;-65
2023/03/03 02:26:17;;;;;;;45.65;42.40;;;7.60;99.90;;;;;;5207405;28;20113;-65
2023/03/03 02:28:49;;;;;;;48.45;44.65;;;7.40;99.90;;;;;;5205538;28;20079;-65
2023/03/03 02:31:23;;;;;;;48.08;44.53;;;7.50;99.90;;;;;;5197254;28;20076;-66
2023/03/03 02:33:55;;;;;;;43.55;40.30;;;7.80;99.90;;;;;;5210960;28;20029;-66
2023/03/03 02:36:31;;;;;;;48.38;45.05;;;7.60;99.90;;;;;;5212734;28;20037;-66
2023/03/03 02:39:25;;;;;;;51.97;48.05;;;7.40;99.90;;;;;;5213673;28;20029;-65
2023/03/03 02:41:59;;;;;;;48.10;44.40;;;7.50;99.90;;;;;;5212502;28;20463;-65
2023/03/03 02:44:32;;;;;;;48.95;45.25;;;7.50;99.90;;;;;;5210258;28;20183;-66
2023/03/03 02:47:04;;;;;;;51.15;47.58;;;7.40;99.90;;;;;;5206242;28;20033;-65
2023/03/03 02:49:36;;;;;;;46.15;42.83;;;7.40;99.90;;;;;;5203163;28;20111;-65
2023/03/03 02:52:09;;;;;;;47.35;44.08;;;7.40;99.90;;;;;;5204461;28;20104;-66
2023/03/03 02:54:40;;;;;;;48.50;44.13;;;7.60;99.90;;;;;;5220504;28;20434;-65
2023/03/03 02:57:11;;;;;;;49.38;45.92;;;7.40;99.90;;;;;;5227026;28;20174;-65
2023/03/03 02:59:41;;;;;;;48.78;45.22;;;7.50;99.90;;;;;;5215245;28;20105;-65
2023/03/03 03:02:12;;;;;;;46.47;42.97;;;7.50;99.90;;;;;;5206107;28;20366;-65
2023/03/03 03:04:43;;;;;;;49.22;45.53;;;7.40;99.90;;;;;;5206675;28;20026;-65
2023/03/03 03:07:14;;;;;;;46.35;43.15;;;7.60;99.90;;;;;;5205458;28;20384;-65
2023/03/03 03:09:45;;;;;;;46.45;43.35;;;7.60;99.90;;;;;;5206502;28;20033;-66
2023/03/03 03:12:18;;;;;;;43.80;40.97;;;7.30;99.90;;;;;;5204518;28;20032;-66
2023/03/03 03:14:48;;;;;;;44.35;41.35;;;7.50;99.90;;;;;;5221083;28;20029;-66
2023/03/03 03:17:19;;;;;;;46.10;42.90;;;7.60;99.90;;;;;;5207365;28;20368;-65
2023/03/03 03:19:50;;;;;;;45.47;42.47;;;7.50;99.90;;;;;;5224323;28;20029;-65
2023/03/03 03:22:21;;;;;;;47.80;44.70;;;7.30;99.90;;;;;;5213267;28;20025;-66
2023/03/03 03:24:52;;;;;;;43.05;40.15;;;7.80;99.90;;;;;;5192917;28;20033;-65
2023/03/03 03:27:23;;;;;;;45.63;42.47;;;7.50;99.90;;;;;;5205234;28;20026;-65
2023/03/03 03:29:54;;;;;;;43.70;40.65;;;7.30;99.90;;;;;;5205851;28;20461;-65
2023/03/03 03:32:24;;;;;;;46.22;42.83;;;7.50;99.90;;;;;;5205299;28;20096;-65
2023/03/03 03:34:55;;;;;;;44.55;41.72;;;7.50;99.90;;;;;;5206273;28;20036;-66
2023/03/03 03:37:26;;;;;;;46.92;44.00;;;7.50;99.90;;;;;;5207168;28;20029;-66
2023/03/03 03:39:57;;;;;;;43.05;40.17;;;7.40;99.90;;;;;;5222789;28;20366;-65
2023/03/03 03:42:28;;;;;;;48.75;45.22;;;7.40;99.90;;;;;;5222913;28;21271;-67
2023/03/03 03:44:59;;;;;;;48.97;45.35;;;7.40;99.90;;;;;;5223480;28;20495;-66
2023/03/03 03:47:29;;;;;;;49.35;45.67;;;7.70;99.90;;;;;;5223822;28;20806;-66
2023/03/03 03:50:00;;;;;;;43.05;39.97;;;7.70;99.90;;;;;;5207617;28;20037;-66
2023/03/03 03:52:31;;;;;;;46.30;43.10;;;7.30;99.90;;;;;;5219802;28;20036;-67
2023/03/03 03:55:02;;;;;;;47.67;44.35;;;7.40;99.90;;;;;;5212906;28;20518;-67
2023/03/03 03:57:33;;;;;;;46.15;42.78;;;7.20;99.90;;;;;;5206346;28;20124;-66
2023/03/03 04:00:07;;;;;;;50.78;47.47;;;7.30;99.90;;;;;;5226419;28;20063;-67
2023/03/03 04:02:38;;;;;;;44.70;41.72;;;7.50;99.90;;;;;;5217009;28;20013;-67
2023/03/03 04:05:09;;;;;;;47.60;44.35;;;7.50;99.90;;;;;;5223477;28;20028;-67
2023/03/03 04:07:40;;;;;;;46.75;43.35;;;7.40;99.90;;;;;;5204024;28;20049;-67
2023/03/03 04:10:11;;;;;;;49.85;46.25;;;7.60;99.90;;;;;;5209046;28;20057;-67
2023/03/03 04:12:42;;;;;;;50.00;46.63;;;7.50;99.90;;;;;;5225407;28;20068;-66
2023/03/03 04:15:14;;;;;;;45.20;42.00;;;7.30;99.90;;;;;;5228942;28;20037;-67
2023/03/03 04:17:45;;;;;;;47.63;44.40;;;7.40;99.90;;;;;;5214875;28;20649;-67
2023/03/03 04:20:16;;;;;;;50.75;47.40;;;7.40;99.90;;;;;;5216596;28;20154;-67
2023/03/03 04:22:47;;;;;;;47.65;44.63;;;7.20;99.90;;;;;;5213559;28;20036;-67
2023/03/03 04:25:17;;;;;;;52.28;48.90;;;7.30;99.90;;;;;;5223519;28;20018;-68
2023/03/03 04:27:49;;;;;;;47.90;44.90;;;7.20;99.90;;;;;;5202164;28;20041;-67
2023/03/03 04:30:19;;;;;;;47.50;44.22;;;7.20;99.90;;;;;;5210360;28;20046;-67
2023/03/03 04:32:52;;;;;;;48.50;45.40;;;7.30;99.90;;;;;;5215595;28;20397;-68
2023/03/03 04:35:22;;;;;;;48.88;45.78;;;7.30;99.90;;;;;;5208102;28;20481;-68
2023/03/03 04:37:53;;;;;;;49.72;46.38;;;7.00;99.90;;;;;;5229314;28;20043;-67
2023/03/03 04:40:24;;;;;;;50.85;47.53;;;7.20;99.90;;;;;;5227625;28;20175;-67
2023/03/03 04:42:55;;;;;;;48.17;44.90;;;7.10;99.90;;;;;;5215650;28;20041;-67
2023/03/03 04:45:26;;;;;;;52.78;49.42;;;7.20;99.90;;;;;;5230041;28;20013;-67
2023/03/03 04:47:57;;;;;;;52.88;49.50;;;7.20;99.90;;;;;;5229100;28;20160;-67
2023/03/03 04:50:28;;;;;;;50.58;47.47;;;7.10;99.90;;;;;;5229842;28;20009;-66
2023/03/03 04:52:59;;;;;;;51.55;48.40;;;7.30;99.90;;;;;;5212730;28;20393;-68
2023/03/03 04:55:30;;;;;;;50.13;46.42;;;7.30;99.90;;;;;;5208665;28;20084;-67
2023/03/03 04:58:00;;;;;;;49.80;46.38;;;7.30;99.90;;;;;;5216676;28;20055;-67
2023/03/03 05:00:31;;;;;;;50.97;47.58;;;7.20;99.90;;;;;;5228712;28;20091;-67
2023/03/03 05:03:02;;;;;;;50.72;47.25;;;7.20;99.90;;;;;;5220423;28;20040;-67
2023/03/03 05:05:33;;;;;;;57.97;53.85;;;7.10;99.90;;;;;;5229741;28;20017;-66
2023/03/03 05:08:04;;;;;;;53.20;49.40;;;7.10;99.90;;;;;;5226528;28;20040;-66
2023/03/03 05:10:35;;;;;;;52.78;48.88;;;7.00;99.90;;;;;;5227434;28;20033;-67
2023/03/03 05:13:08;;;;;;;49.88;46.15;;;7.10;99.90;;;;;;5212135;28;20029;-68
2023/03/03 05:15:38;;;;;;;50.72;47.03;;;7.10;99.90;;;;;;5209028;28;20013;-67
2023/03/03 05:18:10;;;;;;;55.92;51.95;;;7.20;99.90;;;;;;5225108;28;20495;-67
2023/03/03 05:20:41;;;;;;;52.05;48.22;;;7.10;99.90;;;;;;5221051;28;20032;-67
2023/03/03 05:23:12;;;;;;;53.65;49.53;;;7.10;99.90;;;;;;5217099;28;20034;-67
2023/03/03 05:25:43;;;;;;;53.10;49.10;;;7.10;99.90;;;;;;5223589;28;20047;-66
2023/03/03 05:28:15;;;;;;;50.35;46.97;;;7.10;99.90;;;;;;5211099;28;20508;-67
2023/03/03 05:30:46;;;;;;;51.00;47.47;;;7.00;99.90;;;;;;5224665;28;20049;-67
2023/03/03 05:33:17;;;;;;;50.33;46.88;;;7.00;99.90;;;;;;5202654;28;20028;-67
2023/03/03 05:35:53;;;;;;;51.75;48.33;;;7.20;99.90;;;;;;5228387;28;20039;-67
2023/03/03 05:38:24;;;;;;;49.88;46.58;;;6.90;99.90;;;;;;5228880;28;20429;-66
2023/03/03 05:40:55;;;;;;;47.95;44.70;;;7.10;99.90;;;;;;5214252;28;20030;-67
2023/03/03 05:43:27;;;;;;;46.35;42.95;;;7.20;99.90;;;;;;5226922;28;20028;-67
2023/03/03 05:45:58;;;;;;;50.08;46.72;;;7.10;99.90;;;;;;5227814;28;20044;-67
2023/03/03 05:48:29;;;;;;;53.50;49.85;;;7.10;99.90;;;;;;5209422;28;20031;-67
2023/03/03 05:51:00;;;;;;;52.97;49.53;;;7.10;99.90;;;;;;5226628;28;20041;-67
2023/03/03 05:53:31;;;;;;;46.10;43.00;;;7.10;99.90;;;;;;5204183;28;20030;-66
2023/03/03 05:56:02;;;;;;;48.45;45.35;;;7.30;99.90;;;;;;5206048;28;20032;-66
2023/03/03 05:58:32;;;;;;;49.85;46.53;;;7.40;99.90;;;;;;5197017;28;20480;-67
2023/03/03 06:01:03;;;;;;;53.83;50.30;;;7.20;99.90;;;;;;5217001;28;20021;-67
2023/03/03 06:03:34;;;;;;;53.30;49.67;;;7.40;99.90;;;;;;5216257;28;20017;-66
2023/03/03 06:06:05;;;;;;;50.78;47.40;;;7.50;99.90;;;;;;5207383;28;20547;-67
2023/03/03 06:08:36;;;;;;;46.95;43.92;;;7.50;99.90;;;;;;5221889;28;20021;-67
2023/03/03 06:11:07;;;;;;;49.30;46.08;;;7.40;99.90;;;;;;5210022;28;20065;-67
2023/03/03 06:13:40;;;;;;;47.88;44.70;;;7.50;99.90;;;;;;5217100;28;20017;-67
2023/03/03 06:16:11;;;;;;;46.35;43.13;;;7.40;99.90;;;;;;5198675;28;20040;-67
2023/03/03 06:18:41;;;;;;;46.63;43.53;;;7.70;99.90;;;;;;5222781;28;20033;-67
2023/03/03 06:21:12;;;;;;;53.70;50.17;;;7.70;99.90;;;;;;5224317;28;20022;-67
2023/03/03 06:23:43;;;;;;;46.95;43.75;;;7.70;99.90;;;;;;5223593;28;20025;-66
2023/03/03 06:26:14;;;;;;;47.00;44.00;;;7.80;99.90;;;;;;5212557;28;20460;-66
2023/03/03 06:28:45;;;;;;;41.97;38.97;;;7.80;99.90;;;;;;5209014;28;20033;-67
2023/03/03 06:31:16;;;;;;;50.80;47.50;;;7.80;99.90;;;;;;5226884;28;20056;-67
2023/03/03 06:33:47;;;;;;;47.83;44.70;;;8.00;99.90;;;;;;5226047;28;20468;-66
2023/03/03 06:36:18;;;;;;;46.42;43.33;;;8.10;99.90;;;;;;5227011;28;20025;-67
2023/03/03 06:38:49;;;;;;;46.83;43.65;;;8.10;99.90;;;;;;5208110;28;20118;-66
2023/03/03 06:41:20;;;;;;;46.08;43.20;;;7.90;99.90;;;;;;5206139;28;20566;-66
2023/03/03 06:43:51;;;;;;;49.35;45.92;;;8.00;99.90;;;;;;5207088;28;20456;-66
2023/03/03 06:46:22;;;;;;;49.10;45.80;;;8.40;99.90;;;;;;5206922;28;20055;-66
2023/03/03 06:48:53;;;;;;;46.80;43.72;;;8.20;99.90;;;;;;5206962;28;20683;-66
2023/03/03 06:51:30;;;;;;;47.78;44.67;;;8.10;99.90;;;;;;5206851;28;20458;-66
2023/03/03 06:54:10;;;;;;;51.35;48.10;;;8.20;99.90;;;;;;5206982;28;20048;-66
2023/03/03 06:56:42;;;;;;;45.27;42.50;;;8.20;99.90;;;;;;5189506;28;20501;-66
2023/03/03 06:59:20;;;;;;;47.15;44.20;;;8.10;99.90;;;;;;5205684;28;20041;-66
2023/03/03 07:01:52;;;;;;;84.38;79.38;;;8.10;99.90;;;;;;5205738;28;20036;-66
2023/03/03 07:04:32;;;;;;;48.15;45.10;;;8.30;99.90;;;;;;5208961;28;20376;-66
2023/03/03 07:07:24;;;;;;;53.23;49.67;;;8.30;99.90;;;;;;5214600;28;20481;-66
2023/03/03 07:09:56;;;;;;;48.42;45.33;;;8.10;99.90;;;;;;5206420;28;20302;-66
2023/03/03 07:12:29;;;;;;;48.47;45.58;;;8.30;99.90;;;;;;5205580;28;20477;-66
2023/03/03 07:15:21;;;;;;;47.88;44.67;;;8.30;99.90;;;;;;5213812;28;20080;-66
2023/03/03 07:17:58;;;;;;;52.78;49.58;;;8.30;99.90;;;;;;5218381;28;20033;-66
2023/03/03 07:20:37;;;;;;;51.97;48.80;;;8.50;99.90;;;;;;5206952;28;20029;-66
2023/03/03 07:23:22;;;;;;;51.03;47.83;;;8.50;99.90;;;;;;5209987;28;20052;-66
2023/03/03 07:25:54;;;;;;;47.63;44.83;;;8.40;99.90;;;;;;5226132;28;20033;-66
2023/03/03 07:28:31;;;;;;;46.38;43.30;;;8.60;99.90;;;;;;5226421;28;20447;-66
2023/03/03 07:31:21;;;;;;;54.10;50.80;;;8.50;99.90;;;;;;5205592;28;20061;-66
2023/03/03 07:33:53;;;;;;;53.85;50.47;;;8.70;99.90;;;;;;5214860;28;20116;-65
2023/03/03 07:36:30;;;;;;;47.55;44.50;;;8.70;99.90;;;;;;5225844;28;20411;-65
2023/03/03 07:39:13;;;;;;;56.70;52.90;;;8.80;99.90;;;;;;5222493;28;20039;-66
2023/03/03 07:41:44;;;;;;;47.92;44.60;;;9.10;99.90;;;;;;5224525;28;20013;-66
2023/03/03 07:44:30;;;;;;;49.15;45.92;;;9.20;99.90;;;;;;5207684;28;20132;-65
2023/03/03 07:47:23;;;;;;;51.50;48.05;;;9.30;99.90;;;;;;5225883;28;20025;-65
2023/03/03 07:49:58;;;;;;;50.17;46.72;;;9.10;99.90;;;;;;5212508;28;20041;-65
2023/03/03 07:52:41;;;;;;;52.00;48.67;;;9.00;99.90;;;;;;5225624;28;20040;-65
2023/03/03 07:55:35;;;;;;;50.45;47.17;;;8.90;99.90;;;;;;5208132;28;20096;-66
2023/03/03 07:58:15;;;;;;;58.33;54.72;;;9.20;99.90;;;;;;5225389;28;20391;-66
2023/03/03 08:01:04;;;;;;;49.75;46.58;;;9.10;99.90;;;;;;5212446;28;20076;-66
2023/03/03 08:03:35;;;;;;;48.60;45.55;;;9.40;99.90;;;;;;5203389;28;20142;-65
2023/03/03 08:06:28;;;;;;;52.05;48.75;;;9.30;99.90;;;;;;5225432;28;20452;-65
2023/03/03 08:09:28;;;;;;;57.03;53.33;;;9.10;99.90;;;;;;5219344;28;20035;-66
2023/03/03 08:12:19;;;;;;;50.57;47.33;;;9.20;99.90;;;;;;5222974;28;20029;-66
2023/03/03 08:14:51;;;;;;;47.13;44.17;;;9.20;99.90;;;;;;5205201;28;20029;-66
2023/03/03 08:17:35;;;;;;;52.33;49.28;;;9.20;99.90;;;;;;5190896;28;20049;-65
2023/03/03 08:20:47;;;;;;;52.83;49.53;;;8.90;99.90;;;;;;5199319;28;20065;-65
2023/03/03 08:23:20;;;;;;;54.47;51.17;;;8.70;99.90;;;;;;5224114;28;20037;-65
2023/03/03 08:25:51;;;;;;;57.75;54.25;;;9.00;99.90;;;;;;5213692;28;20037;-66
2023/03/03 08:28:23;;;;;;;52.97;49.55;;;9.30;99.90;;;;;;5220452;28;20025;-65
2023/03/03 08:30:53;;;;;;;48.85;45.92;;;9.40;99.90;;;;;;5212098;28;20052;-66
2023/03/03 08:33:24;;;;;;;55.75;52.40;;;9.20;99.90;;;;;;5204218;28;20389;-67
2023/03/03 08:35:55;;;;;;;51.47;48.38;;;9.20;99.90;;;;;;5194056;28;20131;-66
2023/03/03 08:38:27;;;;;;;55.70;52.30;;;9.30;99.90;;;;;;5207340;28;20131;-67
2023/03/03 08:40:58;;;;;;;52.60;49.42;;;9.30;99.90;;;;;;5195294;28;20033;-66
2023/03/03 08:43:28;;;;;;;48.85;45.78;;;9.60;99.90;;;;;;5205452;28;20030;-66
2023/03/03 08:46:04;;;;;;;49.38;46.13;;;9.50;99.90;;;;;;5205427;28;20017;-66
2023/03/03 08:48:34;;;;;;;49.95;46.63;;;9.50;99.90;;;;;;5187762;28;20473;-66
2023/03/03 08:51:06;;;;;;;50.25;47.05;;;9.30;99.90;;;;;;5187782;28;20033;-66
2023/03/03 08:53:37;;;;;;;54.80;51.40;;;9.80;99.90;;;;;;5184613;28;20025;-66
2023/03/03 08:56:09;;;;;;;47.67;44.63;;;9.60;99.90;;;;;;5181721;28;20452;-66
2023/03/03 08:58:46;;;;;;;52.63;49.08;;;9.70;99.90;;;;;;5208759;28;20136;-66
2023/03/03 09:01:17;;;;;;;52.00;48.60;;;9.30;99.90;;;;;;5208881;28;20013;-66
2023/03/03 09:03:48;;;;;;;48.92;45.78;;;9.40;99.90;;;;;;5209077;28;20047;-66
2023/03/03 09:06:19;;;;;;;52.20;48.85;;;9.50;99.90;;;;;;5208920;28;20559;-66
2023/03/03 09:08:50;;;;;;;50.20;47.20;;;9.60;99.90;;;;;;5208576;28;20057;-66
2023/03/03 09:11:26;;;;;;;48.85;45.65;;;9.80;99.90;;;;;;5208760;28;20025;-66
2023/03/03 09:14:11;;;;;;;56.00;52.50;;;9.90;99.90;;;;;;5208908;28;20111;-65
2023/03/03 09:16:49;;;;;;;59.38;55.80;;;10.00;99.90;;;;;;5211998;28;20036;-67
2023/03/03 09:19:28;;;;;;;47.75;44.75;;;9.70;99.90;;;;;;5221142;28;20036;-66
2023/03/03 09:22:17;;;;;;;45.17;42.17;;;9.60;99.90;;;;;;5205441;28;20119;-67
2023/03/03 09:24:50;;;;;;;49.90;46.75;;;9.90;99.90;;;;;;5205776;28;20032;-68
2023/03/03 09:27:36;;;;;;;50.42;47.42;;;10.00;99.90;;;;;;5208725;28;20036;-66
2023/03/03 09:30:25;;;;;;;46.60;43.80;;;10.10;99.90;;;;;;5206538;28;20038;-66
2023/03/03 09:32:57;;;;;;;45.08;42.28;;;10.10;99.90;;;;;;5203271;28;20034;-66
2023/03/03 09:35:36;;;;;;;48.47;45.35;;;10.20;99.90;;;;;;5207058;28;20377;-66
2023/03/03 09:38:30;;;;;;;45.65;42.72;;;9.90;99.90;;;;;;5206383;28;20053;-67
2023/03/03 09:41:13;;;;;;;44.65;41.85;;;10.20;99.90;;;;;;5207640;28;20026;-66
2023/03/03 09:44:04;;;;;;;41.92;39.30;;;10.60;99.90;;;;;;5208550;28;20032;-66
2023/03/03 09:46:47;;;;;;;47.53;44.63;;;10.10;99.90;;;;;;5191330;28;20179;-65
2023/03/03 09:49:35;;;;;;;43.42;40.83;;;9.90;99.90;;;;;;5205469;28;20092;-66
2023/03/03 09:52:39;;;;;;;43.95;41.25;;;10.00;99.90;;;;;;5194944;28;20037;-66
2023/03/03 09:55:44;;;;;;;44.97;41.97;;;10.20;99.90;;;;;;5203520;28;20025;-66
2023/03/03 09:58:53;;;;;;;42.20;39.45;;;10.20;99.90;;;;;;5199667;28;20052;-66
2023/03/03 10:01:49;;;;;;;44.95;42.13;;;9.80;99.90;;;;;;5203348;28;20033;-65
2023/03/03 10:04:55;;;;;;;41.92;39.30;;;10.00;99.90;;;;;;5205171;28;20029;-66
2023/03/03 10:07:29;;;;;;;52.90;49.58;;;9.80;99.90;;;;;;5206209;28;20029;-67
2023/03/03 10:10:30;;;;;;;44.53;41.72;;;10.00;99.90;;;;;;5189348;28;20029;-66
2023/03/03 10:13:19;;;;;;;42.67;39.92;;;10.40;99.90;;;;;;5207223;28;20163;-65
2023/03/03 10:16:27;;;;;;;44.50;41.45;;;10.30;99.90;;;;;;5204373;28;20037;-66
2023/03/03 10:19:23;;;;;;;44.05;40.90;;;10.40;99.90;;;;;;5203269;28;20042;-65
2023/03/03 10:22:16;;;;;;;45.10;42.40;;;10.20;99.90;;;;;;5206580;28;20104;-65
2023/03/03 10:24:53;;;;;;;42.47;39.85;;;10.30;99.90;;;;;;5212086;28;20376;-66
2023/03/03 10:27:56;;;;;;;44.25;41.45;;;10.50;99.90;;;;;;5215320;28;20029;-65
2023/03/03 10:30:52;;;;;;;39.33;36.70;;;10.50;99.90;;;;;;5226654;28;20056;-66
2023/03/03 10:33:47;;;;;;;41.55;39.05;;;10.50;99.90;;;;;;5206010;28;20481;-66
2023/03/03 10:36:33;;;;;;;42.13;39.30;;;10.50;99.90;;;;;;5206714;28;20041;-66
2023/03/03 10:39:10;;;;;;;45.00;41.80;;;10.20;99.90;;;;;;5206209;28;20030;-66
2023/03/03 10:42:04;;;;;;;46.65;43.75;;;10.00;99.90;;;;;;5198347;28;20033;-66
2023/03/03 10:44:57;;;;;;;41.20;38.60;;;10.40;99.90;;;;;;5202025;28;20366;-66
2023/03/03 10:47:56;;;;;;;38.35;35.88;;;10.40;99.90;;;;;;5209660;28;20033;-67
2023/03/03 10:50:51;;;;;;;39.88;37.30;;;10.40;99.90;;;;;;5199660;28;20424;-66
2023/03/03 10:53:50;;;;;;;41.30;38.80;;;10.60;99.90;;;;;;5200825;28;20018;-66
2023/03/03 10:56:57;;;;;;;40.53;37.90;;;10.50;99.90;;;;;;5193384;28;20029;-67
2023/03/03 10:59:56;;;;;;;38.65;36.22;;;10.30;99.90;;;;;;5204608;28;20082;-66
2023/03/03 11:02:40;;;;;;;40.88;37.92;;;10.20;99.90;;;;;;5206777;28;20104;-67
2023/03/03 11:05:14;;;;;;;39.72;37.20;;;9.90;99.90;;;;;;5189047;28;20473;-66
2023/03/03 11:08:00;;;;;;;41.33;38.75;;;10.20;99.90;;;;;;5208538;28;20048;-67
2023/03/03 11:10:43;;;;;;;40.28;37.55;;;10.10;99.90;;;;;;5192441;28;20021;-67
2023/03/03 11:13:41;;;;;;;83.43;78.38;;;10.20;99.90;;;;;;5206701;28;20164;-66
2023/03/03 11:16:31;;;;;;;40.80;38.20;;;10.10;99.90;;;;;;5208553;28;20036;-67
2023/03/03 11:19:16;;;;;;;40.20;37.70;;;10.40;99.90;;;;;;5226955;28;20053;-66
2023/03/03 11:21:53;;;;;;;39.22;36.45;;;10.10;99.90;;;;;;5205294;28;20443;-67
2023/03/03 11:25:11;;;;;;;38.53;36.15;;;10.00;99.90;;;;;;5202426;28;20673;-67
2023/03/03 11:28:11;;;;;;;41.80;39.25;;;10.50;99.90;;;;;;5156802;28;20044;-67
2023/03/03 11:30:44;;;;;;;38.83;36.38;;;10.30;99.90;;;;;;5199967;28;20425;-67
2023/03/03 11:33:44;;;;;;;36.47;33.97;;;10.90;99.90;;;;;;5204651;28;20025;-66
2023/03/03 11:36:19;;;;;;;37.92;35.53;;;11.00;99.90;;;;;;5204114;28;20124;-66
2023/03/03 11:38:52;;;;;;;46.28;43.17;;;10.90;99.90;;;;;;5187979;28;20049;-66
2023/03/03 11:41:31;;;;;;;51.42;48.35;;;11.30;99.90;;;;;;5205200;28;21469;-67
2023/03/03 11:44:26;;;;;;;78.35;73.50;;;10.70;99.90;;;;;;5187216;28;20033;-68
2023/03/03 11:47:09;;;;;;;49.65;46.65;;;10.90;99.90;;;;;;5180723;28;20776;-67
2023/03/03 11:49:47;;;;;;;76.00;71.53;;;11.40;99.90;;;;;;5186329;28;20033;-67
2023/03/03 11:52:27;;;;;;;50.05;46.75;;;11.20;99.90;;;;;;5202720;28;20029;-67
2023/03/03 11:55:04;;;;;;;50.45;47.42;;;10.90;99.90;;;;;;5203628;28;20478;-67
2023/03/03 11:57:41;;;;;;;136.15;128.40;;;10.90;99.90;;;;;;5205019;28;20469;-67
2023/03/03 12:00:32;;;;;;;144.98;136.65;;;11.50;99.90;;;;;;5201473;28;20075;-66
2023/03/03 12:03:28;;;;;;;151.25;142.60;;;11.30;99.90;;;;;;5182223;28;20121;-67
2023/03/03 12:06:10;;;;;;;156.57;147.43;;;11.70;99.90;;;;;;5197839;28;20116;-65
2023/03/03 12:08:53;;;;;;;154.05;145.18;;;11.30;99.90;;;;;;5204688;28;20024;-65
2023/03/03 12:11:50;;;;;;;151.77;143.02;;;11.60;99.90;;;;;;5204949;28;20033;-66
2023/03/03 12:14:21;;;;;;;160.95;151.75;;;11.60;99.90;;;;;;5204281;28;20029;-66
2023/03/03 12:17:00;;;;;;;154.60;145.63;;;11.70;99.90;;;;;;5208972;28;20048;-66
2023/03/03 12:19:34;;;;;;;163.48;154.00;;;11.20;99.90;;;;;;5207536;28;20040;-66
2023/03/03 12:22:30;;;;;;;158.25;149.05;;;11.20;99.90;;;;;;5208192;28;20136;-66
2023/03/03 12:25:18;;;;;;;155.02;145.95;;;11.30;99.90;;;;;;5189606;28;20057;-66
2023/03/03 12:28:14;;;;;;;144.52;136.23;;;11.00;99.90;;;;;;5197435;28;20891;-66
2023/03/03 12:30:50;;;;;;;147.20;138.65;;;11.60;99.90;;;;;;5201342;28;20075;-66
2023/03/03 12:33:47;;;;;;;155.25;146.07;;;11.20;99.90;;;;;;5205934;28;20033;-66
2023/03/03 12:36:47;;;;;;;150.52;141.77;;;10.90;99.90;;;;;;5206144;28;20045;-65
2023/03/03 12:39:44;;;;;;;148.38;139.50;;;10.70;99.90;;;;;;5208277;28;20041;-66
2023/03/03 12:42:37;;;;;;;150.30;141.68;;;10.70;99.90;;;;;;5204377;28;20041;-66
2023/03/03 12:45:23;;;;;;;150.75;141.85;;;10.60;99.90;;;;;;5205950;28;20032;-65
2023/03/03 12:48:22;;;;;;;143.57;135.02;;;10.50;99.90;;;;;;5216441;28;20033;-66
2023/03/03 12:51:11;;;;;;;158.23;149.07;;;10.80;99.90;;;;;;5206659;28;20121;-66
2023/03/03 12:54:11;;;;;;;151.55;142.70;;;10.20;99.90;;;;;;5209030;28;20485;-66
2023/03/03 12:57:08;;;;;;;155.32;146.30;;;10.50;99.90;;;;;;5199526;28;20026;-66
2023/03/03 13:00:07;;;;;;;152.13;143.20;;;10.60;99.90;;;;;;5201204;28;20030;-66
2023/03/03 13:02:59;;;;;;;154.07;145.18;;;10.70;99.90;;;;;;5206204;28;21106;-66
2023/03/03 13:05:48;;;;;;;152.85;143.98;;;10.40;99.90;;;;;;5206824;28;20033;-66
2023/03/03 13:08:37;;;;;;;150.25;141.50;;;10.50;99.90;;;;;;5197594;28;20025;-66
2023/03/03 13:11:32;;;;;;;161.90;152.50;;;10.70;99.90;;;;;;5202788;28;20092;-66
2023/03/03 13:14:34;;;;;;;177.45;167.20;;;12.10;99.90;;;;;;5206816;28;20045;-66
2023/03/03 13:17:17;;;;;;;188.57;178.02;;;12.00;99.90;;;;;;5205053;28;20022;-66
2023/03/03 13:20:01;;;;;;;171.60;161.90;;;12.10;99.90;;;;;;5210825;28;20032;-66
2023/03/03 13:22:40;;;;;;;178.70;168.68;;;11.40;99.90;;;;;;5201235;28;20022;-66
2023/03/03 13:25:34;;;;;;;187.77;177.18;;;11.70;99.90;;;;;;5207482;28;20112;-66
2023/03/03 13:28:18;;;;;;;183.85;172.90;;;12.00;99.90;;;;;;5211702;28;20667;-66
2023/03/03 13:31:00;;;;;;;196.02;184.70;;;11.60;99.90;;;;;;5207937;28;20053;-66